Time;durP1;ratioP1;P1;durP2;ratioP2;P2;SDS_P1;SDS_P2;PMS_P1;PMS_P2;Temp;Humidity;BMP_temperature;BMP_pressure;BME280_temperature;BME280_humidity;BME280_pressure;Samples;Min_cycle;Max_cycle;Signal;HPM_P1;HPM_P2
2022/04/13 00:00:17;;;;;;;9.00;3.20;;;20.00;99.90;;;;;;5051967;28;20392;-72
2022/04/13 00:02:44;;;;;;;11.63;3.05;;;20.00;99.90;;;;;;5053276;28;20017;-72
2022/04/13 00:05:12;;;;;;;7.05;2.05;;;20.00;99.90;;;;;;5053077;28;20021;-72
2022/04/13 00:07:39;;;;;;;7.18;1.95;;;20.00;99.90;;;;;;5051859;28;20133;-73
2022/04/13 00:10:07;;;;;;;6.53;2.20;;;19.80;99.90;;;;;;5051771;28;20091;-72
2022/04/13 00:12:35;;;;;;;5.97;1.80;;;19.70;99.90;;;;;;5051834;28;20477;-72
2022/04/13 00:15:03;;;;;;;7.80;2.00;;;19.60;99.90;;;;;;5053006;28;20020;-72
2022/04/13 00:17:31;;;;;;;5.88;1.70;;;19.70;99.90;;;;;;5052784;28;20021;-73
2022/04/13 00:19:59;;;;;;;6.45;2.00;;;19.80;99.90;;;;;;5051538;28;20483;-72
2022/04/13 00:22:27;;;;;;;6.90;1.95;;;20.30;99.90;;;;;;5051545;28;20576;-72
2022/04/13 00:24:54;;;;;;;7.22;1.90;;;20.60;99.90;;;;;;5052672;28;20478;-71
2022/04/13 00:27:21;;;;;;;6.13;2.10;;;20.80;99.90;;;;;;5051332;28;20033;-72
2022/04/13 00:29:49;;;;;;;5.22;1.60;;;20.70;99.90;;;;;;5052825;28;20099;-72
2022/04/13 00:32:16;;;;;;;3.08;1.25;;;20.40;99.90;;;;;;5052880;28;20373;-72
2022/04/13 00:34:43;;;;;;;7.95;1.70;;;20.40;99.90;;;;;;5052621;28;20048;-72
2022/04/13 00:37:11;;;;;;;5.70;1.45;;;20.70;99.90;;;;;;5051248;28;20024;-72
2022/04/13 00:39:38;;;;;;;3.90;1.20;;;20.60;99.90;;;;;;5051331;28;20032;-72
2022/04/13 00:42:07;;;;;;;6.90;1.65;;;20.60;99.90;;;;;;5052430;28;20462;-72
2022/04/13 00:44:35;;;;;;;5.70;1.25;;;20.60;99.90;;;;;;5052364;28;20059;-73
2022/04/13 00:47:08;;;;;;;8.30;1.33;;;20.70;99.90;;;;;;5052133;28;20374;-72
2022/04/13 00:49:37;;;;;;;4.68;1.08;;;20.60;99.90;;;;;;5052460;28;20031;-73
2022/04/13 00:52:06;;;;;;;4.25;1.23;;;20.70;99.90;;;;;;5052387;28;20056;-73
2022/04/13 00:54:34;;;;;;;9.15;1.90;;;20.70;99.90;;;;;;5051146;28;20063;-72
2022/04/13 00:57:09;;;;;;;5.47;1.30;;;20.80;99.90;;;;;;5052275;28;20021;-71
2022/04/13 00:59:40;;;;;;;4.80;1.83;;;20.80;99.90;;;;;;5051080;28;20021;-72
2022/04/13 01:02:09;;;;;;;6.80;1.63;;;20.80;99.90;;;;;;5052287;28;20477;-72
2022/04/13 01:04:37;;;;;;;7.78;1.50;;;20.70;99.90;;;;;;5052111;28;20087;-72
2022/04/13 01:07:08;;;;;;;5.38;1.25;;;20.50;99.90;;;;;;5050840;28;20485;-71
2022/04/13 01:09:34;;;;;;;;;;;20.30;99.90;;;;;;5052560;28;20029;-70
2022/04/13 01:12:02;;;;;;;7.70;1.50;;;20.40;99.90;;;;;;5051993;28;20035;-71
2022/04/13 01:14:31;;;;;;;3.97;1.10;;;20.50;99.90;;;;;;5050791;28;20397;-71
2022/04/13 01:16:59;;;;;;;6.63;1.60;;;20.50;99.90;;;;;;5051878;28;20056;-73
2022/04/13 01:19:27;;;;;;;3.60;1.10;;;20.70;99.90;;;;;;5050779;28;20108;-72
2022/04/13 01:21:59;;;;;;;3.63;1.23;;;20.60;99.90;;;;;;5050607;28;20063;-72
2022/04/13 01:24:29;;;;;;;2.50;0.98;;;20.50;99.90;;;;;;5050640;28;20436;-71
2022/04/13 01:26:56;;;;;;;5.45;1.42;;;20.20;99.90;;;;;;5051828;28;20021;-72
2022/04/13 01:29:23;;;;;;;3.10;1.10;;;20.10;99.90;;;;;;5050537;28;20054;-72
2022/04/13 01:31:53;;;;;;;5.60;1.60;;;20.00;99.90;;;;;;5054436;28;20385;-72
2022/04/13 01:34:21;;;;;;;5.38;1.50;;;19.90;99.90;;;;;;5054818;28;20061;-72
2022/04/13 01:36:48;;;;;;;4.80;1.20;;;19.80;99.90;;;;;;5055937;28;20017;-72
2022/04/13 01:39:16;;;;;;;8.25;2.00;;;20.00;99.90;;;;;;5054572;28;20120;-72
2022/04/13 01:41:43;;;;;;;3.30;1.10;;;20.20;99.90;;;;;;5055800;28;20085;-72
2022/04/13 01:44:11;;;;;;;7.70;1.67;;;20.20;99.90;;;;;;5054408;28;20119;-72
2022/04/13 01:46:39;;;;;;;6.00;2.05;;;20.30;99.90;;;;;;5054336;28;20040;-73
2022/04/13 01:49:06;;;;;;;6.35;1.38;;;20.20;99.90;;;;;;5055417;28;20450;-72
2022/04/13 01:51:33;;;;;;;6.03;1.30;;;20.40;99.90;;;;;;5055415;28;20079;-72
2022/04/13 01:54:01;;;;;;;6.13;1.60;;;20.50;99.90;;;;;;5055492;28;20092;-73
2022/04/13 01:56:28;;;;;;;3.53;0.95;;;20.60;99.90;;;;;;5054143;28;20028;-73
2022/04/13 01:58:55;;;;;;;4.03;1.20;;;20.80;99.90;;;;;;5055328;28;20470;-73
2022/04/13 02:01:23;;;;;;;3.83;1.10;;;20.90;99.90;;;;;;5054127;28;20035;-73
2022/04/13 02:03:50;;;;;;;3.55;1.10;;;21.00;99.90;;;;;;5055270;28;20052;-72
2022/04/13 02:06:19;;;;;;;5.25;1.50;;;21.10;99.90;;;;;;5053931;28;20033;-73
2022/04/13 02:08:48;;;;;;;2.60;1.23;;;21.40;99.90;;;;;;5055140;28;20036;-73
2022/04/13 02:11:16;;;;;;;5.03;0.90;;;21.80;99.90;;;;;;5055119;28;20487;-73
2022/04/13 02:13:43;;;;;;;3.70;1.00;;;22.10;99.90;;;;;;5055213;28;20017;-73
2022/04/13 02:16:10;;;;;;;3.88;1.08;;;22.00;99.90;;;;;;5055133;28;20021;-73
2022/04/13 02:18:38;;;;;;;2.58;1.25;;;22.20;99.90;;;;;;5055089;28;20422;-73
2022/04/13 02:21:05;;;;;;;2.97;1.13;;;22.30;99.90;;;;;;5055023;28;20078;-74
2022/04/13 02:23:32;;;;;;;3.03;0.90;;;22.00;99.90;;;;;;5053636;28;20021;-72
2022/04/13 02:26:01;;;;;;;4.85;1.02;;;21.80;99.90;;;;;;5053706;28;20561;-73
2022/04/13 02:28:28;;;;;;;2.88;1.10;;;22.50;99.90;;;;;;5053550;28;20028;-73
2022/04/13 02:30:56;;;;;;;1.80;0.90;;;22.90;99.90;;;;;;5054801;28;20517;-73
2022/04/13 02:33:24;;;;;;;4.47;1.20;;;22.70;99.90;;;;;;5054773;28;20104;-73
2022/04/13 02:35:51;;;;;;;2.33;0.95;;;22.30;99.90;;;;;;5053444;28;20025;-71
2022/04/13 02:38:19;;;;;;;10.95;2.78;;;22.10;99.90;;;;;;5054638;28;20021;-71
2022/04/13 02:40:46;;;;;;;2.92;0.88;;;21.80;99.90;;;;;;5053096;28;20057;-73
2022/04/13 02:43:13;;;;;;;11.80;2.90;;;22.10;99.90;;;;;;5054643;28;20075;-73
2022/04/13 02:45:41;;;;;;;14.43;2.45;;;22.30;99.90;;;;;;5054552;28;20465;-73
2022/04/13 02:48:08;;;;;;;3.67;1.08;;;22.40;99.90;;;;;;5052874;28;20154;-73
2022/04/13 02:50:36;;;;;;;2.58;0.90;;;22.00;99.90;;;;;;5054282;28;20025;-73
2022/04/13 02:53:03;;;;;;;3.13;1.13;;;22.40;99.90;;;;;;5053156;28;20017;-72
2022/04/13 02:55:31;;;;;;;2.38;1.08;;;22.40;99.90;;;;;;5052856;28;20059;-71
2022/04/13 02:57:58;;;;;;;3.65;0.80;;;22.00;99.90;;;;;;5052925;28;20025;-73
2022/04/13 03:00:26;;;;;;;2.70;1.02;;;21.90;99.90;;;;;;5052772;28;20025;-74
2022/04/13 03:02:53;;;;;;;2.58;1.05;;;21.80;99.90;;;;;;5054166;28;20171;-72
2022/04/13 03:05:20;;;;;;;1.83;0.95;;;22.10;99.90;;;;;;5052657;28;20032;-74
2022/04/13 03:07:48;;;;;;;3.97;0.93;;;22.20;99.90;;;;;;5052552;28;20505;-73
2022/04/13 03:10:15;;;;;;;2.47;0.70;;;21.90;99.90;;;;;;5053905;28;20025;-74
2022/04/13 03:12:43;;;;;;;4.10;1.30;;;21.80;99.90;;;;;;5053896;28;20114;-73
2022/04/13 03:15:11;;;;;;;2.67;1.00;;;21.90;99.90;;;;;;5053986;28;20103;-73
2022/04/13 03:17:39;;;;;;;5.60;1.10;;;22.10;99.90;;;;;;5054112;28;20021;-73
2022/04/13 03:20:08;;;;;;;2.95;1.15;;;22.00;99.90;;;;;;5053909;28;20021;-73
2022/04/13 03:22:35;;;;;;;4.85;1.00;;;21.90;99.90;;;;;;5052486;28;20029;-72
2022/04/13 03:25:04;;;;;;;3.85;1.20;;;21.50;99.90;;;;;;5053568;28;20025;-72
2022/04/13 03:27:31;;;;;;;3.28;1.08;;;21.70;99.90;;;;;;5052417;28;20052;-73
2022/04/13 03:29:58;;;;;;;3.15;1.10;;;21.90;99.90;;;;;;5053730;28;20083;-73
2022/04/13 03:32:26;;;;;;;3.17;1.35;;;22.30;99.90;;;;;;5053850;28;20025;-72
2022/04/13 03:34:53;;;;;;;4.97;1.33;;;22.40;99.90;;;;;;5053675;28;20028;-73
2022/04/13 03:37:20;;;;;;;3.17;1.67;;;22.20;99.90;;;;;;5053744;28;20021;-72
2022/04/13 03:39:48;;;;;;;3.53;1.20;;;21.90;99.90;;;;;;5053589;28;20017;-73
2022/04/13 03:42:15;;;;;;;6.00;1.65;;;21.70;99.90;;;;;;5053476;28;20036;-73
2022/04/13 03:44:42;;;;;;;5.53;1.40;;;21.60;99.90;;;;;;5053571;28;20029;-72
2022/04/13 03:47:09;;;;;;;6.00;1.27;;;21.70;99.90;;;;;;5053172;28;20112;-73
2022/04/13 03:49:37;;;;;;;2.42;1.02;;;21.60;99.90;;;;;;5053493;28;20071;-73
2022/04/13 03:52:05;;;;;;;4.13;1.27;;;21.40;99.90;;;;;;5053338;28;20033;-74
2022/04/13 03:54:33;;;;;;;2.53;0.95;;;21.10;99.90;;;;;;5052878;28;20428;-72
2022/04/13 03:57:00;;;;;;;2.60;1.05;;;20.90;99.90;;;;;;5052032;28;20021;-72
2022/04/13 03:59:28;;;;;;;3.55;1.08;;;20.80;99.90;;;;;;5051989;28;20028;-72
2022/04/13 04:01:56;;;;;;;3.80;1.13;;;21.20;99.90;;;;;;5051987;28;20485;-73
2022/04/13 04:04:23;;;;;;;4.18;1.40;;;21.40;99.90;;;;;;5053129;28;20414;-72
2022/04/13 04:06:51;;;;;;;6.07;1.63;;;21.30;99.90;;;;;;5051683;28;20048;-72
2022/04/13 04:09:18;;;;;;;3.78;1.23;;;21.40;99.90;;;;;;5051568;28;20027;-72
2022/04/13 04:11:45;;;;;;;1.88;0.90;;;20.90;99.90;;;;;;5052783;28;20469;-73
2022/04/13 04:14:13;;;;;;;3.03;1.38;;;20.80;99.90;;;;;;5051784;28;20094;-75
2022/04/13 04:16:40;;;;;;;5.30;1.63;;;20.80;99.90;;;;;;5051624;28;20496;-73
2022/04/13 04:19:08;;;;;;;3.50;1.05;;;20.50;99.90;;;;;;5052796;28;20025;-74
2022/04/13 04:21:35;;;;;;;9.75;1.83;;;20.40;99.90;;;;;;5052794;28;20094;-72
2022/04/13 04:24:03;;;;;;;2.33;0.95;;;20.40;99.90;;;;;;5051425;28;20021;-72
2022/04/13 04:26:30;;;;;;;7.38;1.48;;;20.30;99.90;;;;;;5051479;28;20021;-74
2022/04/13 04:28:57;;;;;;;4.57;1.65;;;20.00;99.90;;;;;;5052829;28;20155;-74
2022/04/13 04:34:10;;;;;;;3.65;1.65;;;20.00;99.90;;;;;;5053278;28;20501;-72
2022/04/13 04:36:37;;;;;;;2.45;1.30;;;19.80;99.90;;;;;;5052536;28;20433;-72
2022/04/13 04:39:05;;;;;;;3.90;1.20;;;19.80;99.90;;;;;;5052657;28;20014;-72
2022/04/13 04:41:32;;;;;;;2.72;1.40;;;20.10;99.90;;;;;;5052492;28;20033;-71
2022/04/13 04:43:59;;;;;;;2.63;1.35;;;20.80;99.90;;;;;;5051175;28;20392;-73
2022/04/13 04:46:27;;;;;;;3.10;1.08;;;21.40;99.90;;;;;;5052427;28;20440;-73
2022/04/13 04:48:55;;;;;;;3.65;1.35;;;21.50;99.90;;;;;;5050778;28;20513;-73
2022/04/13 04:51:22;;;;;;;5.20;1.40;;;22.00;99.90;;;;;;5050804;28;20147;-72
2022/04/13 04:53:49;;;;;;;5.57;1.60;;;22.10;99.90;;;;;;5052277;28;20021;-74
2022/04/13 04:56:17;;;;;;;3.70;1.40;;;21.90;99.90;;;;;;5050904;28;20375;-73
2022/04/13 04:58:44;;;;;;;3.67;1.20;;;21.80;99.90;;;;;;5050779;28;20025;-73
2022/04/13 05:01:11;;;;;;;2.72;1.10;;;22.00;99.90;;;;;;5050773;28;20025;-74
2022/04/13 05:03:39;;;;;;;3.88;0.95;;;22.00;99.90;;;;;;5050585;28;20103;-72
2022/04/13 05:06:06;;;;;;;3.10;0.73;;;22.20;99.90;;;;;;5051255;28;20486;-73
2022/04/13 05:08:33;;;;;;;2.10;0.80;;;21.80;99.90;;;;;;5052027;28;20025;-73
2022/04/13 05:11:02;;;;;;;1.48;0.80;;;21.80;99.90;;;;;;5051888;28;20029;-75
2022/04/13 05:13:30;;;;;;;3.58;1.17;;;21.40;99.90;;;;;;5051988;28;20045;-72
2022/04/13 05:15:57;;;;;;;2.03;0.60;;;21.50;99.90;;;;;;5050598;28;20079;-74
2022/04/13 05:18:25;;;;;;;1.90;0.75;;;21.50;99.90;;;;;;5050483;28;20090;-73
2022/04/13 05:20:53;;;;;;;1.73;0.82;;;21.60;99.90;;;;;;5050722;28;20028;-74
2022/04/13 05:23:20;;;;;;;2.22;0.85;;;21.50;99.90;;;;;;5051841;28;20017;-72
2022/04/13 05:25:48;;;;;;;1.92;0.50;;;21.20;99.90;;;;;;5050337;28;20055;-72
2022/04/13 05:28:16;;;;;;;2.88;1.13;;;21.50;99.90;;;;;;5050362;28;20025;-73
2022/04/13 05:30:43;;;;;;;2.45;0.80;;;21.70;99.90;;;;;;5050234;28;20029;-74
2022/04/13 05:33:12;;;;;;;2.47;0.93;;;21.30;99.90;;;;;;5051654;28;20104;-73
2022/04/13 05:35:40;;;;;;;1.50;0.80;;;21.50;99.90;;;;;;5050345;28;20108;-73
2022/04/13 05:38:07;;;;;;;2.97;0.73;;;21.40;99.90;;;;;;5050201;28;20025;-74
2022/04/13 05:40:35;;;;;;;3.65;1.50;;;21.20;99.90;;;;;;5050297;28;20047;-74
2022/04/13 05:43:02;;;;;;;2.97;1.30;;;20.80;99.90;;;;;;5050135;28;20123;-73
2022/04/13 05:45:30;;;;;;;2.95;1.50;;;20.70;99.90;;;;;;5051572;28;20457;-73
2022/04/13 05:47:58;;;;;;;4.75;1.70;;;20.90;99.90;;;;;;5050100;28;20137;-74
2022/04/13 05:50:26;;;;;;;11.43;2.88;;;20.90;99.90;;;;;;5049889;28;20032;-74
2022/04/13 05:52:53;;;;;;;6.88;1.95;;;20.50;99.90;;;;;;5050058;28;20075;-73
2022/04/13 05:55:20;;;;;;;2.65;1.00;;;20.50;99.90;;;;;;5050109;28;20430;-73
2022/04/13 05:57:48;;;;;;;3.55;1.20;;;20.20;99.90;;;;;;5050038;28;20021;-72
2022/04/13 06:00:15;;;;;;;2.47;1.20;;;20.10;99.90;;;;;;5050143;28;20474;-72
2022/04/13 06:02:43;;;;;;;3.42;1.13;;;19.60;99.90;;;;;;5050157;28;20075;-72
2022/04/13 06:05:11;;;;;;;3.60;1.10;;;19.30;99.90;;;;;;5050027;28;20029;-74
2022/04/13 06:07:38;;;;;;;4.50;1.48;;;19.10;99.90;;;;;;5050056;28;20029;-73
2022/04/13 06:10:07;;;;;;;6.47;1.95;;;18.80;99.90;;;;;;5050003;28;20021;-73
2022/04/13 06:12:34;;;;;;;3.17;1.20;;;18.80;99.90;;;;;;5051389;28;20025;-73
2022/04/13 06:15:03;;;;;;;3.72;0.98;;;18.50;99.90;;;;;;5049947;28;20025;-73
2022/04/13 06:17:31;;;;;;;4.05;1.17;;;18.30;99.90;;;;;;5053112;28;20022;-74
2022/04/13 06:19:58;;;;;;;3.70;0.98;;;18.20;99.90;;;;;;5053662;28;20052;-75
2022/04/13 06:22:26;;;;;;;3.20;1.00;;;18.00;99.90;;;;;;5053604;28;20058;-75
2022/04/13 06:24:53;;;;;;;3.67;1.05;;;18.00;99.90;;;;;;5053504;28;20032;-75
2022/04/13 06:27:21;;;;;;;2.92;0.73;;;17.80;99.90;;;;;;5054917;28;20108;-74
2022/04/13 06:29:48;;;;;;;2.90;0.70;;;17.80;99.90;;;;;;5054783;28;20025;-74
2022/04/13 06:32:15;;;;;;;3.38;0.70;;;17.80;99.90;;;;;;5054875;28;20016;-74
2022/04/13 06:34:43;;;;;;;3.47;0.90;;;17.70;99.90;;;;;;5053410;28;20025;-74
2022/04/13 06:37:10;;;;;;;3.80;0.95;;;17.70;99.90;;;;;;5053337;28;20025;-75
2022/04/13 06:39:37;;;;;;;3.63;1.23;;;17.80;99.90;;;;;;5053148;28;20021;-75
2022/04/13 06:42:05;;;;;;;2.38;0.90;;;17.70;99.90;;;;;;5053295;28;20513;-74
2022/04/13 06:44:32;;;;;;;3.63;0.77;;;17.70;99.90;;;;;;5054466;28;20021;-75
2022/04/13 06:47:01;;;;;;;3.58;0.70;;;17.60;99.90;;;;;;5053067;28;20032;-74
2022/04/13 06:49:28;;;;;;;2.97;0.70;;;17.70;99.90;;;;;;5053412;28;20033;-74
2022/04/13 06:51:56;;;;;;;2.78;0.80;;;17.60;99.90;;;;;;5054520;28;20074;-75
2022/04/13 06:54:24;;;;;;;2.03;0.50;;;17.70;99.90;;;;;;5054433;28;20029;-76
2022/04/13 06:56:51;;;;;;;3.67;0.63;;;17.60;99.90;;;;;;5053084;28;20112;-74
2022/04/13 06:59:18;;;;;;;3.20;0.90;;;17.60;99.90;;;;;;5054462;28;20044;-74
2022/04/13 07:01:46;;;;;;;0.95;0.40;;;17.50;99.90;;;;;;5054270;28;20035;-73
2022/04/13 07:04:14;;;;;;;2.92;0.63;;;17.50;99.90;;;;;;5054246;28;20055;-76
2022/04/13 07:06:41;;;;;;;1.48;0.70;;;17.60;99.90;;;;;;5054255;28;20080;-75
2022/04/13 07:09:08;;;;;;;2.78;0.88;;;17.60;99.90;;;;;;5052800;28;20032;-74
2022/04/13 07:11:36;;;;;;;2.90;0.70;;;17.60;99.90;;;;;;5053792;28;20174;-75
2022/04/13 07:14:03;;;;;;;3.13;0.70;;;17.70;99.90;;;;;;5054093;28;20421;-74
2022/04/13 07:16:30;;;;;;;4.47;1.30;;;17.80;99.90;;;;;;5053989;28;20013;-74
2022/04/13 07:18:58;;;;;;;3.83;1.00;;;17.80;99.90;;;;;;5052698;28;20086;-75
2022/04/13 07:21:25;;;;;;;3.50;1.20;;;17.90;99.90;;;;;;5052536;28;20029;-75
2022/04/13 07:23:52;;;;;;;3.55;0.90;;;17.80;99.90;;;;;;5054087;28;20442;-74
2022/04/13 07:26:20;;;;;;;4.63;1.50;;;17.70;99.90;;;;;;5052500;28;20029;-73
2022/04/13 07:28:47;;;;;;;4.47;1.80;;;17.50;99.90;;;;;;5052640;28;20028;-74
2022/04/13 07:31:14;;;;;;;5.57;1.50;;;17.60;99.90;;;;;;5053697;28;20017;-73
2022/04/13 07:33:42;;;;;;;3.33;1.33;;;17.70;99.90;;;;;;5052510;28;20485;-74
2022/04/13 07:36:09;;;;;;;2.72;1.15;;;17.60;99.90;;;;;;5052498;28;20452;-75
2022/04/13 07:38:36;;;;;;;6.63;1.60;;;17.60;99.90;;;;;;5053597;28;20025;-74
2022/04/13 07:41:04;;;;;;;3.22;1.30;;;17.50;99.90;;;;;;5053654;28;20047;-75
2022/04/13 07:43:31;;;;;;;5.18;1.98;;;17.30;99.90;;;;;;5052309;28;20553;-74
2022/04/13 07:45:59;;;;;;;3.22;1.50;;;17.30;99.90;;;;;;5053529;28;20036;-74
2022/04/13 07:48:28;;;;;;;5.97;1.80;;;17.10;99.90;;;;;;5051885;28;20048;-74
2022/04/13 07:50:56;;;;;;;4.90;1.73;;;17.00;99.90;;;;;;5052178;28;20124;-73
2022/04/13 07:53:23;;;;;;;5.72;2.15;;;17.00;99.90;;;;;;5051925;28;20021;-73
2022/04/13 07:55:50;;;;;;;6.18;2.55;;;17.00;99.90;;;;;;5053285;28;20079;-75
2022/04/13 07:58:18;;;;;;;3.97;1.95;;;17.00;99.90;;;;;;5051822;28;20027;-74
2022/04/13 08:00:46;;;;;;;3.60;1.40;;;17.00;99.90;;;;;;5051970;28;20389;-75
2022/04/13 08:03:15;;;;;;;3.53;1.20;;;16.90;99.90;;;;;;5052216;28;20025;-76
2022/04/13 08:05:42;;;;;;;3.10;1.30;;;16.90;99.90;;;;;;5051750;28;20024;-74
2022/04/13 08:08:09;;;;;;;3.03;1.67;;;16.90;99.90;;;;;;5053183;28;20035;-77
2022/04/13 08:10:37;;;;;;;4.57;1.73;;;16.90;99.90;;;;;;5051811;28;20032;-75
2022/04/13 08:13:04;;;;;;;3.53;1.30;;;16.80;99.90;;;;;;5053253;28;20489;-73
2022/04/13 08:15:32;;;;;;;3.55;1.30;;;16.80;99.90;;;;;;5053208;28;20093;-75
2022/04/13 08:17:59;;;;;;;2.00;1.10;;;16.80;99.90;;;;;;5053257;28;20547;-75
2022/04/13 08:20:26;;;;;;;3.65;1.23;;;16.80;99.90;;;;;;5051885;28;20036;-74
2022/04/13 08:22:54;;;;;;;2.72;1.52;;;16.80;99.90;;;;;;5053049;28;20056;-74
2022/04/13 08:25:21;;;;;;;3.05;1.00;;;16.80;99.90;;;;;;5051727;28;20404;-75
2022/04/13 08:27:48;;;;;;;2.67;1.02;;;16.70;99.90;;;;;;5053000;28;20027;-75
2022/04/13 08:30:17;;;;;;;2.67;1.17;;;16.70;99.90;;;;;;5052963;28;20496;-78
2022/04/13 08:32:44;;;;;;;2.65;1.05;;;16.80;99.90;;;;;;5051756;28;20404;-76
2022/04/13 08:35:12;;;;;;;3.45;1.27;;;16.80;99.90;;;;;;5052781;28;20151;-76
2022/04/13 08:37:40;;;;;;;1.92;1.08;;;16.80;99.90;;;;;;5051414;28;20552;-73
2022/04/13 08:40:08;;;;;;;3.10;1.20;;;16.90;99.90;;;;;;5051264;28;20082;-75
2022/04/13 08:43:08;;;;;;;4.35;1.85;;;16.90;99.90;;;;;;5051398;28;20069;-74
2022/04/13 08:45:47;;;;;;;8.63;1.90;;;16.90;99.90;;;;;;5052500;28;20017;-73
2022/04/13 08:48:22;;;;;;;6.82;2.53;;;17.00;99.90;;;;;;5052528;28;20561;-73
2022/04/13 08:50:53;;;;;;;5.40;2.45;;;17.00;99.90;;;;;;5051244;28;20081;-73
2022/04/13 08:53:26;;;;;;;3.10;1.90;;;17.00;99.90;;;;;;5052553;28;20017;-73
2022/04/13 08:55:54;;;;;;;4.97;2.58;;;17.00;99.90;;;;;;5051242;28;20492;-73
2022/04/13 08:58:49;;;;;;;5.55;2.50;;;16.90;99.90;;;;;;5051122;28;20500;-73
2022/04/13 09:01:42;;;;;;;3.90;2.75;;;16.90;99.90;;;;;;5051125;28;20346;-74
2022/04/13 09:04:11;;;;;;;4.75;2.95;;;16.90;99.90;;;;;;5051036;28;20033;-73
2022/04/13 09:06:42;;;;;;;5.35;3.10;;;17.00;99.90;;;;;;5051030;28;20396;-74
2022/04/13 09:09:43;;;;;;;4.95;3.17;;;17.00;99.90;;;;;;5051290;28;20112;-73
2022/04/13 09:12:12;;;;;;;5.70;2.90;;;17.00;99.90;;;;;;5051819;28;20041;-74
2022/04/13 09:14:42;;;;;;;3.22;2.00;;;17.00;99.90;;;;;;5052174;28;20057;-75
2022/04/13 09:17:10;;;;;;;4.60;1.92;;;17.00;99.90;;;;;;5050924;28;20017;-73
2022/04/13 09:19:38;;;;;;;3.95;1.80;;;17.00;99.90;;;;;;5050807;28;20020;-75
2022/04/13 09:22:07;;;;;;;4.28;2.10;;;17.00;99.90;;;;;;5050810;28;20047;-74
2022/04/13 09:24:38;;;;;;;6.28;2.67;;;16.90;99.90;;;;;;5051196;28;20033;-74
2022/04/13 09:27:06;;;;;;;5.25;2.65;;;16.80;99.90;;;;;;5052258;28;20079;-75
2022/04/13 09:29:34;;;;;;;6.85;3.50;;;16.80;99.90;;;;;;5052309;28;20418;-75
2022/04/13 09:32:01;;;;;;;5.55;3.35;;;16.80;99.90;;;;;;5050576;28;20075;-72
2022/04/13 09:34:29;;;;;;;6.80;4.15;;;16.80;99.90;;;;;;5051985;28;20025;-73
2022/04/13 09:36:56;;;;;;;6.30;3.42;;;16.80;99.90;;;;;;5050556;28;20021;-75
2022/04/13 09:39:24;;;;;;;7.95;3.97;;;16.70;99.90;;;;;;5050818;28;20025;-75
2022/04/13 09:41:52;;;;;;;6.43;3.92;;;16.80;99.90;;;;;;5052000;28;20032;-74
2022/04/13 09:44:20;;;;;;;5.30;4.07;;;16.70;99.90;;;;;;5050633;28;20115;-74
2022/04/13 09:46:47;;;;;;;5.28;3.08;;;16.70;99.90;;;;;;5050515;28;20025;-74
2022/04/13 09:49:22;;;;;;;7.53;3.53;;;16.70;99.90;;;;;;5052005;28;20049;-73
2022/04/13 09:51:51;;;;;;;6.15;3.95;;;16.70;99.90;;;;;;5052693;28;20112;-74
2022/04/13 09:54:24;;;;;;;8.23;5.63;;;16.70;99.90;;;;;;5055874;28;20108;-73
2022/04/13 09:56:52;;;;;;;7.30;4.85;;;16.60;99.90;;;;;;5054584;28;20025;-75
2022/04/13 09:59:28;;;;;;;6.18;4.03;;;16.60;99.90;;;;;;5054618;28;20017;-74
2022/04/13 10:01:55;;;;;;;5.85;3.95;;;16.60;99.90;;;;;;5055770;28;20114;-75
2022/04/13 10:04:30;;;;;;;7.20;4.90;;;16.60;99.90;;;;;;5054340;28;20021;-75
2022/04/13 10:07:18;;;;;;;9.85;4.88;;;16.70;99.90;;;;;;5054450;28;20025;-74
2022/04/13 10:09:45;;;;;;;4.45;2.72;;;16.70;99.90;;;;;;5055470;28;20048;-74
2022/04/13 10:12:13;;;;;;;8.18;3.20;;;16.60;99.90;;;;;;5055337;28;20033;-77
2022/04/13 10:14:41;;;;;;;2.70;2.05;;;16.50;99.90;;;;;;5055509;28;20076;-74
2022/04/13 10:17:12;;;;;;;5.60;2.38;;;16.50;99.90;;;;;;5055406;28;20017;-74
2022/04/13 10:19:40;;;;;;;3.85;2.03;;;16.50;99.90;;;;;;5055331;28;20021;-74
2022/04/13 10:22:08;;;;;;;7.18;1.45;;;16.50;99.90;;;;;;5054152;28;20052;-73
2022/04/13 10:24:40;;;;;;;3.22;1.40;;;16.40;99.90;;;;;;5053907;28;20498;-74
2022/04/13 10:27:13;;;;;;;2.33;1.17;;;16.40;99.90;;;;;;5053968;28;20032;-73
2022/04/13 10:29:43;;;;;;;3.42;1.27;;;16.40;99.90;;;;;;5054872;28;20385;-74
2022/04/13 10:32:19;;;;;;;2.72;1.48;;;16.40;99.90;;;;;;5053664;28;20029;-74
2022/04/13 10:34:52;;;;;;;3.10;1.80;;;16.40;99.90;;;;;;5055047;28;20105;-74
2022/04/13 10:37:21;;;;;;;4.00;2.00;;;16.50;99.90;;;;;;5055041;28;20022;-73
2022/04/13 10:39:51;;;;;;;6.43;1.93;;;16.50;99.90;;;;;;5055001;28;20017;-74
2022/04/13 10:42:19;;;;;;;5.50;2.05;;;16.60;99.90;;;;;;5053695;28;20049;-75
2022/04/13 10:45:07;;;;;;;4.10;1.85;;;16.60;99.90;;;;;;5054901;28;20056;-75
2022/04/13 10:48:04;;;;;;;5.07;2.47;;;16.60;99.90;;;;;;5054600;28;20505;-74
2022/04/13 10:50:36;;;;;;;5.47;2.03;;;16.60;99.90;;;;;;5053713;28;20068;-74
2022/04/13 10:53:29;;;;;;;5.75;2.17;;;16.60;99.90;;;;;;5053479;28;20025;-74
2022/04/13 10:56:03;;;;;;;5.28;2.95;;;16.60;99.90;;;;;;5054638;28;20401;-74
2022/04/13 10:59:00;;;;;;;4.35;2.25;;;16.50;99.90;;;;;;5054565;28;20497;-75
2022/04/13 11:01:52;;;;;;;6.70;3.00;;;16.60;99.90;;;;;;5053259;28;20432;-74
2022/04/13 11:04:27;;;;;;;6.07;2.83;;;16.60;99.90;;;;;;5051783;28;20033;-74
2022/04/13 11:06:55;;;;;;;5.57;2.60;;;16.50;99.90;;;;;;5053144;28;20028;-74
2022/04/13 11:09:33;;;;;;;5.28;2.58;;;16.60;99.90;;;;;;5054287;28;20024;-75
2022/04/13 11:12:01;;;;;;;4.63;2.17;;;16.60;99.90;;;;;;5054244;28;20029;-74
2022/04/13 11:14:30;;;;;;;5.40;2.42;;;16.60;99.90;;;;;;5053002;28;20021;-75
2022/04/13 11:17:07;;;;;;;7.60;2.63;;;16.60;99.90;;;;;;5052985;28;20017;-74
2022/04/13 11:19:34;;;;;;;6.13;2.65;;;16.50;99.90;;;;;;5052659;28;20041;-75
2022/04/13 11:22:02;;;;;;;7.20;3.10;;;16.60;99.90;;;;;;5052704;28;20033;-76
2022/04/13 11:24:36;;;;;;;6.90;2.58;;;16.60;99.90;;;;;;5054095;28;20036;-75
2022/04/13 11:27:05;;;;;;;5.38;2.95;;;16.50;99.90;;;;;;5054060;28;20075;-75
2022/04/13 11:29:37;;;;;;;5.18;2.65;;;16.50;99.90;;;;;;5054000;28;20029;-74
2022/04/13 11:32:05;;;;;;;7.70;3.08;;;16.50;99.90;;;;;;5053762;28;20135;-73
2022/04/13 11:34:36;;;;;;;5.80;2.63;;;16.40;99.90;;;;;;5052537;28;20017;-73
2022/04/13 11:37:16;;;;;;;6.55;3.33;;;16.50;99.90;;;;;;5053889;28;20021;-74
2022/04/13 11:40:10;;;;;;;7.55;3.83;;;16.40;99.90;;;;;;5052618;28;20021;-72
2022/04/13 11:42:42;;;;;;;8.07;3.58;;;16.30;99.90;;;;;;5053780;28;20430;-72
2022/04/13 11:45:17;;;;;;;5.95;3.25;;;16.30;99.90;;;;;;5053718;28;20017;-72
2022/04/13 11:47:50;;;;;;;3.92;2.35;;;16.20;99.90;;;;;;5053485;28;20033;-73
2022/04/13 11:50:18;;;;;;;5.05;2.85;;;16.20;99.90;;;;;;5052244;28;20025;-72
2022/04/13 11:52:59;;;;;;;6.10;2.95;;;16.10;99.90;;;;;;5052204;28;20040;-73
2022/04/13 11:55:38;;;;;;;7.63;3.38;;;16.10;99.90;;;;;;5052187;28;20112;-74
2022/04/13 11:58:08;;;;;;;8.05;3.45;;;16.10;99.90;;;;;;5053543;28;20020;-73
2022/04/13 12:00:55;;;;;;;7.30;3.30;;;16.00;99.90;;;;;;5053326;28;20024;-74
2022/04/13 12:03:34;;;;;;;5.82;3.30;;;16.10;99.90;;;;;;5052182;28;20061;-72
2022/04/13 12:06:07;;;;;;;5.05;3.33;;;16.00;99.90;;;;;;5052122;28;20029;-73
2022/04/13 12:08:45;;;;;;;10.35;3.78;;;16.00;99.90;;;;;;5053584;28;20039;-73
2022/04/13 12:11:17;;;;;;;7.13;4.03;;;16.00;99.90;;;;;;5053209;28;20103;-73
2022/04/13 12:13:50;;;;;;;6.18;3.92;;;16.00;99.90;;;;;;5052707;28;20032;-73
2022/04/13 12:16:23;;;;;;;6.22;4.28;;;16.10;99.90;;;;;;5051799;28;20028;-74
2022/04/13 12:18:52;;;;;;;5.35;4.38;;;16.00;99.90;;;;;;5051833;28;20021;-73
2022/04/13 12:21:22;;;;;;;5.55;4.70;;;16.00;99.90;;;;;;5051694;28;20120;-73
2022/04/13 12:23:49;;;;;;;4.88;4.10;;;16.10;99.90;;;;;;5053042;28;20021;-72
2022/04/13 12:26:28;;;;;;;5.72;3.92;;;16.00;99.90;;;;;;5051752;28;20477;-73
2022/04/13 12:28:56;;;;;;;7.93;4.40;;;16.00;99.90;;;;;;5051690;28;20370;-73
2022/04/13 12:31:27;;;;;;;5.55;4.20;;;16.00;99.90;;;;;;5051566;28;20056;-74
2022/04/13 12:34:01;;;;;;;6.15;4.00;;;15.90;99.90;;;;;;5052878;28;20072;-73
2022/04/13 12:36:28;;;;;;;5.78;4.32;;;15.90;99.90;;;;;;5052868;28;20021;-74
2022/04/13 12:38:57;;;;;;;5.72;3.78;;;15.90;99.90;;;;;;5051544;28;20111;-73
2022/04/13 12:41:28;;;;;;;7.15;4.22;;;16.00;99.90;;;;;;5052651;28;20401;-73
2022/04/13 12:44:04;;;;;;;6.22;4.38;;;16.00;99.90;;;;;;5052789;28;20509;-73
2022/04/13 12:46:32;;;;;;;10.18;4.80;;;;;;;;;;5051265;28;20041;-73
2022/04/13 12:49:03;;;;;;;11.18;7.40;;;;;;;;;;5051102;28;20429;-74
2022/04/13 12:51:35;;;;;;;9.85;7.10;;;;;;;;;;5052415;28;20036;-74
2022/04/13 12:54:11;;;;;;;12.10;8.05;;;;;;;;;;5051077;28;20052;-73
2022/04/13 12:56:40;;;;;;;10.43;7.57;;;;;;;;;;5051139;28;20036;-73
2022/04/13 12:59:07;;;;;;;9.70;6.57;;;;;;;;;;5052362;28;20416;-73
2022/04/13 13:01:36;;;;;;;11.30;7.85;;;;;;;;;;5052293;28;20021;-73
2022/04/13 13:04:10;;;;;;;9.50;6.95;;;;;;;;;;5050770;28;20025;-74